Time;durP1;ratioP1;P1;durP2;ratioP2;P2;SDS_P1;SDS_P2;PMS_P1;PMS_P2;Temp;Humidity;BMP_temperature;BMP_pressure;BME280_temperature;BME280_humidity;BME280_pressure;Samples;Min_cycle;Max_cycle;Signal;HPM_P1;HPM_P2
2022/11/04 00:02:03;;;;;;;12.13;4.30;;;;;;;8.46;100.00;100203.69;5163266;28;20026;-73
2022/11/04 00:04:34;;;;;;;16.92;4.75;;;;;;;8.46;100.00;100205.53;5163231;28;20049;-74
2022/11/04 00:08:22;;;;;;;12.40;3.92;;;;;;;8.45;100.00;100214.56;5162523;28;20037;-74
2022/11/04 00:09:55;;;;;;;10.70;3.85;;;;;;;8.44;100.00;100212.91;5152002;28;20505;-74
2022/11/04 00:12:25;;;;;;;12.82;3.70;;;;;;;8.42;100.00;100228.25;5164141;28;20023;-75
2022/11/04 00:17:18;;;;;;;8.43;3.83;;;;;;;8.46;100.00;100227.75;5166111;28;20072;-75
2022/11/04 00:17:46;;;;;;;12.52;3.85;;;;;;;8.53;100.00;100226.09;5162116;28;20022;-75
2022/11/04 00:28:44;;;;;;;8.93;2.83;;;;;;;8.45;100.00;100233.28;5162227;28;20023;-75
2022/11/04 00:34:03;;;;;;;10.25;2.63;;;;;;;8.26;100.00;100239.75;5149948;28;20034;-75
2022/11/04 00:36:34;;;;;;;7.35;2.53;;;;;;;8.20;100.00;100235.06;5162171;28;20035;-75
2022/11/04 00:39:04;;;;;;;6.05;2.53;;;;;;;8.14;100.00;100241.94;5162681;28;20030;-75
2022/11/04 00:41:34;;;;;;;14.38;2.70;;;;;;;8.04;100.00;100250.09;5162824;28;20050;-74
2022/11/04 00:44:05;;;;;;;5.20;2.65;;;;;;;8.01;100.00;100250.41;5162693;28;20034;-74
2022/11/04 00:46:35;;;;;;;8.85;3.05;;;;;;;8.00;100.00;100261.25;5161168;28;20027;-74
2022/11/04 00:49:06;;;;;;;13.52;2.50;;;;;;;7.92;100.00;100262.06;5160857;28;20496;-74
2022/11/04 00:51:36;;;;;;;10.10;2.47;;;;;;;7.84;100.00;100256.72;5162809;28;20044;-74
2022/11/04 00:54:07;;;;;;;9.25;2.47;;;;;;;7.76;100.00;100254.03;5163147;28;20061;-74
2022/11/04 00:56:38;;;;;;;14.43;2.80;;;;;;;7.71;100.00;100267.84;5162476;28;20030;-74
2022/11/04 00:59:09;;;;;;;7.63;2.25;;;;;;;7.67;100.00;100271.00;5161001;28;20022;-74
2022/11/04 01:01:40;;;;;;;5.40;2.85;;;;;;;7.58;100.00;100277.31;5162410;28;20453;-74
2022/11/04 01:04:11;;;;;;;10.38;2.15;;;;;;;7.53;100.00;100275.97;5165673;28;20556;-74
2022/11/04 01:06:41;;;;;;;7.43;2.22;;;;;;;7.55;100.00;100278.47;5166256;28;20251;-74
2022/11/04 01:09:12;;;;;;;14.70;2.17;;;;;;;7.55;100.00;100278.47;5165886;28;20120;-73
2022/11/04 01:11:43;;;;;;;11.82;2.40;;;;;;;7.56;100.00;100277.47;5164856;28;20038;-74
2022/11/04 01:14:14;;;;;;;13.88;2.70;;;;;;;7.54;100.00;100279.47;5166172;28;20022;-75
2022/11/04 01:16:45;;;;;;;23.85;2.65;;;;;;;7.52;100.00;100284.13;5164937;28;20081;-73
2022/11/04 01:19:16;;;;;;;9.52;2.25;;;;;;;7.52;100.00;100281.44;5165988;28;20022;-74
2022/11/04 01:21:49;;;;;;;10.45;2.13;;;;;;;7.58;100.00;100285.31;5166092;28;20526;-72
2022/11/04 01:24:20;;;;;;;10.70;3.33;;;;;;;7.57;100.00;100292.47;5165559;28;20045;-73
2022/11/04 01:26:50;;;;;;;8.23;2.33;;;;;;;7.62;100.00;100292.00;5169562;28;20026;-74
2022/11/04 01:29:21;;;;;;;10.63;2.22;;;;;;;7.66;100.00;100286.19;5165937;28;20470;-73
2022/11/04 01:31:51;;;;;;;16.13;2.15;;;;;;;7.71;100.00;100291.06;5161525;28;20475;-73
2022/11/04 01:34:22;;;;;;;12.23;1.90;;;;;;;7.79;100.00;100285.75;5166145;28;20473;-73
2022/11/04 01:36:52;;;;;;;9.63;2.42;;;;;;;7.84;100.00;100277.25;5165191;28;20117;-73
2022/11/04 01:39:23;;;;;;;10.13;1.98;;;;;;;7.88;100.00;100278.56;5166171;28;20054;-74
2022/11/04 01:41:53;;;;;;;8.77;1.95;;;;;;;7.91;100.00;100279.09;5166092;28;20496;-73
2022/11/04 01:44:47;;;;;;;6.75;2.08;;;;;;;7.93;100.00;100270.91;5166186;28;20114;-73
2022/11/04 01:47:42;;;;;;;17.48;3.00;;;;;;;8.00;100.00;100274.63;5164308;28;20026;-73
2022/11/04 01:50:15;;;;;;;14.57;2.00;;;;;;;7.98;100.00;100280.13;5165949;28;20026;-73
2022/11/04 01:52:51;;;;;;;8.57;2.65;;;;;;;7.98;100.00;100274.78;5166007;28;20049;-73
2022/11/04 01:55:24;;;;;;;6.97;2.55;;;;;;;7.97;100.00;100277.59;5165783;28;20062;-74
2022/11/04 01:58:00;;;;;;;12.63;2.60;;;;;;;7.97;100.00;100266.91;5165149;28;20018;-74
2022/11/04 02:00:31;;;;;;;12.25;2.25;;;;;;;7.90;100.00;100271.25;5165788;28;20041;-73
2022/11/04 02:03:09;;;;;;;19.77;2.33;;;;;;;7.89;100.00;100273.09;5166002;28;20030;-73
2022/11/04 02:05:41;;;;;;;11.38;2.30;;;;;;;7.88;100.00;100275.91;5165954;28;20030;-73
2022/11/04 02:08:14;;;;;;;8.05;2.40;;;;;;;7.88;100.00;100274.09;5165011;28;20678;-73
2022/11/04 02:10:53;;;;;;;12.75;2.58;;;;;;;7.89;100.00;100272.25;5165517;28;20026;-73
2022/11/04 02:13:24;;;;;;;10.80;2.50;;;;;;;7.87;100.00;100272.41;5165662;28;20030;-73
2022/11/04 02:16:19;;;;;;;12.88;2.55;;;;;;;7.86;100.00;100273.41;5165859;28;20061;-73
2022/11/04 02:19:01;;;;;;;10.20;2.10;;;;;;;7.86;100.00;100275.25;5165502;28;20529;-73
2022/11/04 02:21:46;;;;;;;8.63;2.50;;;;;;;7.85;100.00;100274.41;5165969;28;20347;-73
2022/11/04 02:24:50;;;;;;;9.23;2.13;;;;;;;7.84;100.00;100266.56;5165573;28;20034;-73
2022/11/04 02:27:28;;;;;;;9.25;3.00;;;;;;;7.84;100.00;100269.25;5164989;28;20026;-73
2022/11/04 02:30:17;;;;;;;17.23;2.95;;;;;;;7.87;100.00;100272.41;5165253;28;20034;-73
2022/11/04 02:33:16;;;;;;;17.98;2.50;;;;;;;7.90;100.00;100260.56;5160407;28;20117;-73
2022/11/04 02:36:31;;;;;;;19.35;2.55;;;;;;;7.89;100.00;100266.91;5153631;28;20365;-73
2022/11/04 02:39:23;;;;;;;12.15;2.22;;;;;;;7.85;100.00;100265.56;5152309;28;20038;-73
2022/11/04 02:41:56;;;;;;;11.50;2.47;;;;;;;7.81;100.00;100257.03;5165384;28;20022;-73
2022/11/04 02:44:34;;;;;;;13.57;2.53;;;;;;;7.77;100.00;100256.50;5165475;28;20034;-73
2022/11/04 02:47:11;;;;;;;17.77;2.40;;;;;;;7.69;100.00;100261.03;5152041;28;20675;-74
2022/11/04 02:49:51;;;;;;;17.67;3.60;;;;;;;7.60;100.00;100262.81;5164934;28;20089;-75
2022/11/04 02:52:29;;;;;;;21.27;2.65;;;;;;;7.54;100.00;100252.78;5165430;28;20220;-74
2022/11/04 02:55:06;;;;;;;15.15;2.70;;;;;;;7.48;100.00;100254.28;5165879;28;20105;-74
2022/11/04 02:57:41;;;;;;;11.65;2.05;;;;;;;7.44;100.00;100260.91;5164919;28;20027;-72
2022/11/04 03:00:13;;;;;;;14.88;2.58;;;;;;;7.39;100.00;100255.22;5165693;28;20125;-73
2022/11/04 03:02:58;;;;;;;9.20;2.15;;;;;;;7.41;100.00;100261.22;5165714;28;20540;-72
2022/11/04 03:05:36;;;;;;;16.33;2.72;;;;;;;7.42;100.00;100257.56;5165144;28;20030;-74
2022/11/04 03:08:17;;;;;;;18.48;3.03;;;;;;;7.49;100.00;100255.94;5164430;28;20268;-74
2022/11/04 03:10:53;;;;;;;9.48;2.88;;;;;;;7.58;100.00;100255.94;5164090;28;20074;-73
2022/11/04 03:13:40;;;;;;;21.90;3.63;;;;;;;7.65;100.00;100257.81;5164480;28;20070;-73
2022/11/04 03:16:36;;;;;;;19.65;3.63;;;;;;;7.71;100.00;100261.69;5164282;28;20038;-74
2022/11/04 03:19:07;;;;;;;;;;;;;;;7.75;100.00;100257.69;5164077;28;20027;-73
2022/11/04 03:21:53;;;;;;;10.25;2.88;;;;;;;7.79;100.00;100253.69;5163064;28;19917;-73
2022/11/04 03:24:23;;;;;;;18.60;3.33;;;;;;;7.81;100.00;100251.69;5154085;28;20035;-73
2022/11/04 03:26:59;;;;;;;21.38;4.15;;;;;;;7.86;100.00;100243.19;5150778;28;20027;-73
2022/11/04 03:29:36;;;;;;;21.02;4.25;;;;;;;7.90;100.00;100247.22;5163828;28;20510;-73
2022/11/04 03:32:36;;;;;;;12.57;3.03;;;;;;;7.92;100.00;100253.22;5159331;28;20027;-73
2022/11/04 03:35:08;;;;;;;19.13;3.75;;;;;;;7.90;100.00;100253.41;5163967;28;20027;-73
2022/11/04 03:37:38;;;;;;;16.35;3.80;;;;;;;7.93;100.00;100260.22;5163005;28;20022;-73
2022/11/04 03:40:09;;;;;;;20.88;3.13;;;;;;;7.92;100.00;100255.88;5163929;28;20026;-74
2022/11/04 03:42:49;;;;;;;13.30;2.72;;;;;;;7.94;100.00;100260.09;5164104;28;20022;-73
2022/11/04 03:45:20;;;;;;;20.55;3.78;;;;;;;7.96;100.00;100257.25;5163845;28;20026;-73
2022/11/04 03:47:51;;;;;;;17.02;3.42;;;;;;;7.98;100.00;100264.09;5162796;28;20030;-73
2022/11/04 03:50:29;;;;;;;17.35;3.35;;;;;;;7.99;100.00;100265.78;5163672;28;20489;-72
2022/11/04 03:52:59;;;;;;;11.02;3.25;;;;;;;7.99;100.00;100260.44;5163666;28;20030;-73
2022/11/04 03:55:44;;;;;;;15.18;3.65;;;;;;;8.02;100.00;100267.25;5179006;28;20113;-73
2022/11/04 03:58:49;;;;;;;16.35;3.30;;;;;;;8.01;100.00;100261.09;5162995;28;20034;-73
2022/11/04 04:01:29;;;;;;;25.50;4.03;;;;;;;8.02;100.00;100268.09;5162938;28;20089;-73
2022/11/04 04:04:21;;;;;;;11.95;3.47;;;;;;;8.01;100.00;100266.44;5163386;28;20022;-73
2022/11/04 04:07:00;;;;;;;19.38;4.15;;;;;;;8.03;100.00;100261.78;5161722;28;20026;-73
2022/11/04 04:09:38;;;;;;;19.60;3.67;;;;;;;8.02;100.00;100265.44;5163322;28;20069;-73
2022/11/04 04:12:18;;;;;;;15.50;3.40;;;;;;;8.01;100.00;100258.41;5163374;28;20479;-73
2022/11/04 04:14:51;;;;;;;17.98;3.47;;;;;;;8.01;100.00;100261.09;5163529;28;20038;-73
2022/11/04 04:17:35;;;;;;;20.45;4.10;;;;;;;8.01;100.00;100268.28;5161292;28;20464;-73
2022/11/04 04:20:14;;;;;;;28.48;4.57;;;;;;;8.01;100.00;100266.44;5163428;28;20026;-73
2022/11/04 04:22:48;;;;;;;13.48;4.65;;;;;;;8.00;100.00;100272.78;5162237;28;20381;-72
2022/11/04 04:28:16;;;;;;;17.55;3.63;;;;;;;8.01;100.00;100273.63;5155187;28;20041;-73
2022/11/04 04:30:46;;;;;;;10.17;3.57;;;;;;;8.03;100.00;100275.13;5150303;28;20014;-73
2022/11/04 04:33:18;;;;;;;17.15;3.70;;;;;;;8.07;100.00;100272.94;5173638;28;20030;-74
2022/11/04 04:35:53;;;;;;;14.02;3.35;;;;;;;8.10;100.00;100277.16;5163005;28;20034;-73
2022/11/04 04:47:23;;;;;;;11.15;3.25;;;;;;;8.10;100.00;100271.81;5166988;28;20030;-74
2022/11/04 04:49:56;;;;;;;18.17;3.80;;;;;;;8.05;100.00;100281.13;5167141;28;20021;-74
2022/11/04 04:52:30;;;;;;;15.43;3.42;;;;;;;8.04;100.00;100275.97;5167131;28;20026;-74
2022/11/04 04:55:01;;;;;;;12.98;3.47;;;;;;;8.02;100.00;100286.78;5167365;28;20085;-73
2022/11/04 04:57:32;;;;;;;12.88;3.30;;;;;;;8.01;100.00;100284.31;5181756;28;20137;-73
2022/11/04 05:00:04;;;;;;;13.88;3.13;;;;;;;8.01;100.00;100292.31;5167039;28;20153;-74
2022/11/04 05:02:35;;;;;;;15.65;3.08;;;;;;;7.98;100.00;100297.97;5166882;28;20026;-74
2022/11/04 05:05:06;;;;;;;17.50;4.50;;;;;;;7.91;100.00;100292.44;5166614;28;20100;-73
2022/11/04 05:07:36;;;;;;;9.43;3.55;;;;;;;7.84;100.00;100296.78;5165989;28;20022;-73
2022/11/04 05:10:10;;;;;;;15.93;3.80;;;;;;;7.79;100.00;100293.75;5166815;28;20391;-73
2022/11/04 05:15:30;;;;;;;11.02;3.15;;;;;;;7.66;100.00;100293.38;5166237;28;20030;-74
2022/11/04 05:18:02;;;;;;;9.27;3.03;;;;;;;7.61;100.00;100290.34;5166135;28;20037;-73
2022/11/04 05:20:33;;;;;;;17.17;3.47;;;;;;;7.65;100.00;100297.88;5166612;28;20076;-73
2022/11/04 05:23:03;;;;;;;13.50;4.03;;;;;;;7.70;100.00;100302.72;5166467;28;20458;-74
2022/11/04 05:25:34;;;;;;;23.85;3.55;;;;;;;7.76;100.00;100310.94;5170395;28;20045;-73
2022/11/04 05:28:05;;;;;;;11.23;3.65;;;;;;;7.80;100.00;100311.44;5165571;28;20118;-74
2022/11/04 05:30:36;;;;;;;12.38;3.90;;;;;;;7.84;100.00;100314.63;5166331;28;20026;-74
2022/11/04 05:33:06;;;;;;;16.48;4.82;;;;;;;7.90;100.00;100314.81;5161891;28;20034;-75
2022/11/04 05:35:36;;;;;;;12.90;3.85;;;;;;;7.93;100.00;100313.66;5166437;28;20064;-75
2022/11/04 05:38:07;;;;;;;16.20;4.22;;;;;;;7.96;100.00;100319.50;5165554;28;20023;-74
2022/11/04 05:40:37;;;;;;;13.02;4.30;;;;;;;8.00;100.00;100317.34;5165932;28;20035;-73
2022/11/04 05:43:08;;;;;;;16.58;5.10;;;;;;;8.03;100.00;100317.00;5166161;28;20022;-72
2022/11/04 05:45:38;;;;;;;12.48;4.13;;;;;;;8.08;100.00;100321.88;5166219;28;20501;-74
2022/11/04 05:48:09;;;;;;;17.90;3.97;;;;;;;8.11;100.00;100319.72;5165000;28;20479;-74
2022/11/04 05:50:40;;;;;;;20.40;5.07;;;;;;;8.20;100.00;100324.09;5166146;28;20510;-74
2022/11/04 05:53:11;;;;;;;18.33;4.50;;;;;;;8.29;100.00;100327.63;5180897;28;20027;-74
2022/11/04 05:55:41;;;;;;;15.80;4.72;;;;;;;8.22;100.00;100324.75;5165184;28;20473;-74
2022/11/04 05:58:12;;;;;;;10.70;4.28;;;;;;;8.19;100.00;100333.13;5165668;28;20109;-74
2022/11/04 06:00:42;;;;;;;16.13;4.20;;;;;;;8.18;100.00;100328.78;5165949;28;20033;-75
2022/11/04 06:03:13;;;;;;;12.52;4.05;;;;;;;8.18;100.00;100338.59;5165778;28;20026;-74
2022/11/04 06:05:43;;;;;;;14.30;4.47;;;;;;;8.19;100.00;100340.28;5166551;28;20034;-73
2022/11/04 06:08:14;;;;;;;14.32;4.32;;;;;;;8.19;100.00;100334.94;5165979;28;20065;-74
2022/11/04 06:10:44;;;;;;;15.43;3.80;;;;;;;8.18;100.00;100339.47;5165638;28;20034;-74
2022/11/04 06:13:14;;;;;;;18.13;4.88;;;;;;;8.20;100.00;100353.47;5165756;28;20489;-74
2022/11/04 06:15:45;;;;;;;17.30;5.13;;;;;;;8.22;100.00;100355.97;5180982;28;20029;-73
2022/11/04 06:18:16;;;;;;;18.90;4.97;;;;;;;8.23;100.00;100361.19;5164907;28;20030;-73
2022/11/04 06:20:46;;;;;;;11.40;4.80;;;;;;;8.27;100.00;100364.34;5165469;28;20506;-74
2022/11/04 06:23:17;;;;;;;14.70;4.75;;;;;;;8.29;100.00;100373.91;5165492;28;20068;-74
2022/11/04 06:25:47;;;;;;;15.88;4.97;;;;;;;8.34;100.00;100376.06;5163269;28;20018;-73
2022/11/04 06:28:17;;;;;;;15.68;4.38;;;;;;;8.34;100.00;100367.22;5157777;28;20121;-73
2022/11/04 06:30:48;;;;;;;12.30;4.70;;;;;;;8.36;100.00;100368.75;5165387;28;20038;-73
2022/11/04 06:33:18;;;;;;;14.32;4.32;;;;;;;8.38;100.00;100374.75;5160553;28;20073;-74
2022/11/04 06:35:49;;;;;;;11.57;4.45;;;;;;;8.40;100.00;100377.28;5165204;28;20158;-74
2022/11/04 06:38:19;;;;;;;15.27;4.47;;;;;;;8.44;100.00;100376.81;5164667;28;20401;-74
2022/11/04 06:40:51;;;;;;;15.05;4.72;;;;;;;8.45;100.00;100383.81;5180089;28;20084;-74
2022/11/04 06:43:21;;;;;;;13.32;4.35;;;;;;;8.43;100.00;100388.47;5164959;28;20070;-73
2022/11/04 06:45:53;;;;;;;12.95;4.55;;;;;;;8.43;100.00;100388.47;5164976;28;20030;-75
2022/11/04 06:48:25;;;;;;;11.93;4.95;;;;;;;8.44;100.00;100392.00;5164106;28;20026;-74
2022/11/04 06:50:59;;;;;;;20.60;5.97;;;;;;;8.47;100.00;100391.66;5164919;28;20073;-74
2022/11/04 06:53:29;;;;;;;20.73;5.57;;;;;;;8.48;100.00;100404.88;5164358;28;20101;-74
2022/11/04 06:56:02;;;;;;;16.85;5.05;;;;;;;8.50;100.00;100402.88;5164859;28;20153;-75
2022/11/04 06:58:33;;;;;;;10.27;4.93;;;;;;;8.53;100.00;100407.91;5164677;28;20046;-74
2022/11/04 07:01:03;;;;;;;11.48;5.18;;;;;;;8.53;100.00;100405.22;5164043;28;20481;-74
2022/11/04 07:03:34;;;;;;;19.77;6.63;;;;;;;8.55;100.00;100410.41;5164647;28;20398;-72
2022/11/04 07:06:09;;;;;;;12.57;5.55;;;;;;;8.56;100.00;100407.56;5164666;28;20096;-73
2022/11/04 07:08:39;;;;;;;14.88;5.32;;;;;;;8.59;100.00;100402.91;5165002;28;20026;-72
2022/11/04 07:11:10;;;;;;;23.00;5.68;;;;;;;8.59;100.00;100409.09;5165207;28;20022;-72
2022/11/04 07:13:41;;;;;;;23.58;6.10;;;;;;;8.62;100.00;100411.41;5165242;28;20394;-72
2022/11/04 07:16:12;;;;;;;16.67;5.82;;;;;;;8.63;100.00;100409.56;5168569;28;20026;-72
2022/11/04 07:18:42;;;;;;;17.25;5.38;;;;;;;8.65;100.00;100415.59;5165447;28;20390;-72
2022/11/04 07:21:13;;;;;;;23.98;5.70;;;;;;;8.69;100.00;100422.31;5164401;28;20029;-72
2022/11/04 07:23:44;;;;;;;19.98;5.90;;;;;;;8.72;100.00;100424.63;5164190;28;20419;-72
2022/11/04 07:26:14;;;;;;;21.02;5.75;;;;;;;8.73;100.00;100416.44;5158461;28;20034;-72
2022/11/04 07:28:45;;;;;;;21.38;5.20;;;;;;;8.79;100.00;100428.34;5160303;28;20117;-73
2022/11/04 07:31:16;;;;;;;23.27;5.47;;;;;;;8.84;100.00;100435.88;5161284;28;20482;-73
2022/11/04 07:33:48;;;;;;;15.05;5.47;;;;;;;8.95;100.00;100433.72;5157895;28;20651;-73
2022/11/04 07:36:19;;;;;;;21.20;5.80;;;;;;;9.03;100.00;100438.22;5140320;28;20149;-73
2022/11/04 07:38:50;;;;;;;21.45;6.07;;;;;;;9.15;100.00;100442.25;5138584;28;20379;-73
2022/11/04 07:41:21;;;;;;;26.88;7.05;;;;;;;9.24;100.00;100438.56;5137777;28;20582;-73
2022/11/04 07:43:52;;;;;;;17.92;7.78;;;;;;;9.35;100.00;100434.72;5142641;28;20110;-73
2022/11/04 07:46:23;;;;;;;28.17;6.97;;;;;;;9.51;100.00;100444.56;5150027;28;20027;-73
2022/11/04 07:48:57;;;;;;;19.40;7.38;;;;;;;9.69;100.00;100441.69;5143557;28;20014;-73
2022/11/04 07:51:29;;;;;;;20.87;7.47;;;;;;;9.83;100.00;100441.81;5147285;28;20023;-73
2022/11/04 07:54:00;;;;;;;19.42;6.80;;;;;;;10.01;100.00;100449.66;5147864;28;20034;-73
2022/11/04 07:56:30;;;;;;;20.88;6.30;;;;;;;10.19;100.00;100456.63;5140392;28;20475;-73
2022/11/04 07:59:04;;;;;;;17.60;5.90;;;;;;;10.31;100.00;100456.13;5145496;28;20022;-73
2022/11/04 08:01:35;;;;;;;24.40;6.18;;;;;;;10.47;100.00;100468.63;5151971;28;20394;-73
2022/11/04 08:04:06;;;;;;;21.35;5.50;;;;;;;10.61;100.00;100470.56;5150169;28;20050;-72
2022/11/04 08:06:37;;;;;;;21.42;5.93;;;;;;;10.65;100.00;100471.06;5155379;28;20030;-73
2022/11/04 08:09:08;;;;;;;18.85;5.07;;;;;;;10.68;100.00;100475.22;5149806;28;20458;-73
2022/11/04 08:11:38;;;;;;;20.40;4.53;;;;;;;10.72;100.00;100479.22;5140080;28;20053;-73
2022/11/04 08:14:09;;;;;;;15.82;4.45;;;;;;;10.62;100.00;100482.97;5144322;28;20027;-73
2022/11/04 08:16:39;;;;;;;13.20;4.97;;;;;;;10.60;100.00;100487.69;5147177;28;20464;-73
2022/11/04 08:19:10;;;;;;;16.80;4.38;;;;;;;10.53;100.00;100488.53;5153603;28;20026;-73
2022/11/04 08:21:40;;;;;;;17.00;4.43;;;;;;;10.47;100.00;100495.44;5147338;28;20045;-73
2022/11/04 08:24:11;;;;;;;21.13;5.03;;;;;;;10.45;100.00;100496.63;5152324;28;20026;-73
2022/11/04 08:26:41;;;;;;;17.42;5.25;;;;;;;10.42;100.00;100500.47;5149287;28;20085;-73
2022/11/04 08:29:12;;;;;;;12.77;4.80;;;;;;;10.37;100.00;100503.69;5145061;28;20019;-73
2022/11/04 08:31:42;;;;;;;17.95;4.75;;;;;;;10.31;100.00;100506.22;5148793;28;20065;-73
2022/11/04 08:34:15;;;;;;;15.45;5.68;;;;;;;10.25;100.00;100505.06;5152349;28;20034;-73
2022/11/04 08:36:46;;;;;;;14.73;4.90;;;;;;;10.22;100.00;100509.91;5144254;28;20542;-73
2022/11/04 08:39:16;;;;;;;14.43;4.85;;;;;;;10.19;100.00;100523.66;5142854;28;20019;-73
2022/11/04 08:41:48;;;;;;;16.73;6.15;;;;;;;10.16;100.00;100522.16;5151128;28;20018;-73
2022/11/04 08:44:19;;;;;;;16.08;5.10;;;;;;;10.15;100.00;100519.66;5146339;28;20371;-73
2022/11/04 08:46:50;;;;;;;11.93;5.75;;;;;;;10.15;100.00;100523.16;5144733;28;20082;-73
2022/11/04 08:49:20;;;;;;;22.10;6.55;;;;;;;10.19;100.00;100529.00;5151466;28;20467;-73
2022/11/04 08:51:58;;;;;;;21.40;7.93;;;;;;;10.26;100.00;100535.41;5153471;28;20113;-73
2022/11/04 08:54:29;;;;;;;24.08;7.80;;;;;;;10.35;100.00;100534.38;5154884;28;20023;-73
2022/11/04 08:56:59;;;;;;;21.00;7.38;;;;;;;10.40;100.00;100533.88;5147842;28;20026;-73
2022/11/04 08:59:30;;;;;;;29.63;8.05;;;;;;;10.45;100.00;100540.38;5144067;28;20019;-73
2022/11/04 09:02:01;;;;;;;27.98;7.78;;;;;;;10.49;100.00;100541.72;5145316;28;20105;-73
2022/11/04 09:04:31;;;;;;;20.63;7.35;;;;;;;10.47;100.00;100542.88;5146260;28;20117;-73
2022/11/04 09:07:02;;;;;;;22.33;8.48;;;;;;;10.47;100.00;100542.88;5149759;28;20026;-73
2022/11/04 09:09:32;;;;;;;22.80;8.10;;;;;;;10.47;100.00;100550.91;5143319;28;20033;-73
2022/11/04 09:12:03;;;;;;;25.50;7.85;;;;;;;10.44;100.00;100549.44;5145774;28;20023;-73
2022/11/04 09:14:33;;;;;;;24.63;7.72;;;;;;;10.44;100.00;100548.56;5162400;28;20105;-73
2022/11/04 09:17:04;;;;;;;23.15;7.70;;;;;;;10.43;100.00;100553.09;5149852;28;20085;-73
2022/11/04 09:19:35;;;;;;;28.30;8.20;;;;;;;10.43;100.00;100555.78;5154087;28;20022;-73
2022/11/04 09:22:06;;;;;;;30.02;9.02;;;;;;;10.46;100.00;100563.50;5145965;28;20080;-73
2022/11/04 09:24:36;;;;;;;23.60;8.77;;;;;;;10.56;100.00;100566.81;5153690;28;20513;-73
2022/11/04 09:27:07;;;;;;;24.33;8.00;;;;;;;10.63;100.00;100570.47;5143623;28;20023;-73
2022/11/04 09:29:37;;;;;;;25.52;8.65;;;;;;;10.63;100.00;100572.31;5157860;28;20339;-73
2022/11/04 09:32:08;;;;;;;22.20;8.27;;;;;;;10.62;100.00;100579.53;5147658;28;20031;-73
2022/11/04 09:34:38;;;;;;;19.73;8.10;;;;;;;10.63;100.00;100575.84;5150156;28;20064;-73
2022/11/04 09:37:09;;;;;;;21.05;8.75;;;;;;;10.54;100.00;100579.56;5143340;28;20506;-73
2022/11/04 09:39:40;;;;;;;20.10;7.53;;;;;;;10.55;100.00;100588.47;5143300;28;20430;-73
2022/11/04 09:42:10;;;;;;;17.40;7.60;;;;;;;10.61;100.00;100588.59;5151373;28;20023;-73
2022/11/04 09:44:54;;;;;;;17.48;7.45;;;;;;;10.63;100.00;100594.63;5148602;28;20402;-73
2022/11/04 09:47:25;;;;;;;18.25;8.45;;;;;;;10.70;100.00;100600.16;5150887;28;20058;-73
2022/11/04 09:49:58;;;;;;;20.00;8.55;;;;;;;10.78;100.00;100597.41;5142717;28;20022;-73
2022/11/04 09:52:36;;;;;;;18.73;8.32;;;;;;;10.81;100.00;100602.44;5142433;28;20019;-73
2022/11/04 09:55:36;;;;;;;24.13;7.97;;;;;;;10.85;100.00;100608.31;5152549;28;20025;-73
2022/11/04 09:58:12;;;;;;;33.95;15.45;;;;;;;10.99;100.00;100612.91;5159002;28;20030;-73
2022/11/04 10:00:47;;;;;;;;;;;;;;;11.05;100.00;100614.09;5146034;28;20052;-73
2022/11/04 10:04:00;;;;;;;35.03;14.65;;;;;;;11.15;100.00;100617.41;5148737;28;20238;-73
2022/11/04 10:07:01;;;;;;;31.55;15.25;;;;;;;11.21;100.00;100615.88;5154238;28;20046;-73
2022/11/04 10:09:35;;;;;;;25.13;11.07;;;;;;;11.17;100.00;100623.41;5143311;28;20023;-73
2022/11/04 10:12:12;;;;;;;24.70;10.02;;;;;;;11.28;100.00;100627.56;5147177;28;20030;-73
2022/11/04 10:15:09;;;;;;;14.25;7.63;;;;;;;11.40;100.00;100636.91;5157173;28;20149;-73
2022/11/04 10:17:48;;;;;;;12.35;5.28;;;;;;;11.60;100.00;100645.34;5144964;28;20403;-73
2022/11/04 10:21:20;;;;;;;20.05;6.40;;;;;;;11.65;100.00;100646.47;5142445;28;20030;-73
2022/11/04 10:24:11;;;;;;;15.75;5.38;;;;;;;11.79;100.00;100646.72;5139256;28;20054;-73
2022/11/04 10:26:45;;;;;;;21.63;5.93;;;;;;;11.91;100.00;100662.28;5142330;28;20453;-73
2022/11/04 10:29:27;;;;;;;19.67;5.70;;;;;;;11.92;100.00;100661.25;5143787;28;20043;-73
2022/11/04 10:32:02;;;;;;;14.23;6.10;;;;;;;12.03;100.00;100653.78;5152002;28;20025;-73
2022/11/04 10:34:45;;;;;;;13.23;5.88;;;;;;;12.07;100.00;100649.72;5146340;28;20026;-73
2022/11/04 10:37:16;;;;;;;17.80;6.03;;;;;;;12.08;100.00;100656.78;5142242;28;20019;-73
2022/11/04 10:39:47;;;;;;;15.23;6.03;;;;;;;12.03;100.00;100660.00;5147163;28;20343;-73
2022/11/04 10:42:23;;;;;;;20.90;7.78;;;;;;;12.07;100.00;100664.00;5143714;28;20023;-73
2022/11/04 10:44:53;;;;;;;16.52;6.47;;;;;;;12.06;100.00;100664.19;5143813;28;20030;-73
2022/11/04 10:47:26;;;;;;;23.80;6.10;;;;;;;12.11;100.00;100659.94;5148325;28;20023;-73
2022/11/04 10:50:16;;;;;;;18.17;8.18;;;;;;;12.14;100.00;100667.63;5154726;28;20371;-73
2022/11/04 10:52:46;;;;;;;23.33;7.75;;;;;;;12.27;100.00;100671.59;5149182;28;20513;-73
2022/11/04 10:55:44;;;;;;;15.93;7.30;;;;;;;12.23;100.00;100670.28;5152481;28;20022;-73
2022/11/04 10:58:20;;;;;;;21.83;7.80;;;;;;;12.12;100.00;100674.22;5149222;28;20030;-73
2022/11/04 11:00:51;;;;;;;16.52;7.50;;;;;;;12.04;100.00;100685.03;5149056;28;20022;-73
2022/11/04 11:03:33;;;;;;;15.70;7.68;;;;;;;12.06;100.00;100683.84;5155347;28;20034;-73
2022/11/04 11:06:12;;;;;;;20.38;8.10;;;;;;;11.92;100.00;100692.69;5153141;28;20030;-73
2022/11/04 11:08:43;;;;;;;19.00;7.68;;;;;;;11.91;100.00;100688.34;5146481;28;20061;-73
2022/11/04 11:11:14;;;;;;;24.27;8.45;;;;;;;11.89;100.00;100701.09;5150689;28;20309;-73
2022/11/04 11:13:45;;;;;;;20.58;8.93;;;;;;;11.85;100.00;100694.44;5151040;28;20390;-73
2022/11/04 11:16:25;;;;;;;21.02;9.23;;;;;;;11.91;100.00;100691.03;5152785;28;20018;-72
2022/11/04 11:19:13;;;;;;;18.67;8.82;;;;;;;11.95;100.00;100699.53;5154893;28;20014;-73
2022/11/04 11:21:49;;;;;;;21.38;9.00;;;;;;;11.98;100.00;100697.34;5154930;28;20038;-73
2022/11/04 11:24:25;;;;;;;19.58;8.90;;;;;;;11.92;100.00;100698.91;5145031;28;20030;-73
2022/11/04 11:26:57;;;;;;;19.45;9.18;;;;;;;11.90;100.00;100694.72;5148145;28;20466;-73
2022/11/04 11:29:31;;;;;;;20.35;11.80;;;;;;;11.91;100.00;100693.72;5148073;28;20022;-73
2022/11/04 11:32:02;;;;;;;25.48;11.15;;;;;;;11.93;100.00;100688.97;5142862;28;20019;-72
2022/11/04 11:34:37;;;;;;;25.67;12.13;;;;;;;11.92;100.00;100690.00;5141561;28;20203;-73
2022/11/04 11:37:18;;;;;;;;;;;;;;;11.90;100.00;100692.88;5154918;28;20019;-72
2022/11/04 11:39:49;;;;;;;25.23;10.77;;;;;;;11.85;100.00;100694.44;5148655;28;19913;-72
2022/11/04 11:42:20;;;;;;;30.70;12.55;;;;;;;11.82;100.00;100698.31;5151748;28;20165;-73
2022/11/04 11:44:55;;;;;;;24.25;12.68;;;;;;;11.85;100.00;100699.81;5145866;28;20503;-72
2022/11/04 11:47:27;;;;;;;24.88;11.60;;;;;;;12.03;100.00;100705.72;5142391;28;20030;-72
2022/11/04 11:50:12;;;;;;;25.88;11.43;;;;;;;12.13;100.00;100714.38;5145378;28;20065;-72
2022/11/04 11:52:45;;;;;;;26.42;11.88;;;;;;;12.33;100.00;100712.03;5158021;28;20027;-73
2022/11/04 11:55:22;;;;;;;26.02;11.55;;;;;;;12.40;100.00;100714.84;5149940;28;20073;-72
2022/11/04 11:58:09;;;;;;;24.40;11.98;;;;;;;12.64;100.00;100708.41;5144564;28;20038;-72
2022/11/04 12:00:59;;;;;;;26.33;13.35;;;;;;;12.86;100.00;100714.75;5142269;28;20050;-73
2022/11/04 12:03:36;;;;;;;24.75;14.20;;;;;;;12.91;100.00;100723.13;5147607;28;20429;-72
2022/11/04 12:06:28;;;;;;;31.80;15.25;;;;;;;12.77;100.00;100732.84;5146587;28;20474;-72
2022/11/04 12:09:20;;;;;;;32.97;15.77;;;;;;;12.59;100.00;100737.72;5155877;28;20113;-73
2022/11/04 12:12:25;;;;;;;29.63;16.23;;;;;;;12.33;100.00;100746.16;5141736;28;20104;-73
2022/11/04 12:15:17;;;;;;;31.03;16.17;;;;;;;12.15;100.00;100750.00;5150851;28;20161;-72
2022/11/04 12:18:09;;;;;;;33.00;18.40;;;;;;;12.10;100.00;100747.03;5152472;28;20018;-72